Latest Weather Observations for Mount Gellibrand

IDV60801

Issued at 11:02 am EST Tuesday 28 July 2015 (issued every 30 minutes, with the page automatically refreshed every 10 minutes)

About weather observations | Map of weather stations | Latest weather observations for VIC | Other Formats
Station Details ID: 090035 Name: MOUNT GELLIBRAND Lat: -38.23 Lon: 143.79 Height: 261.0 m
Data from the previous 72 hours. | See also: Recent months at Mount Gellibrand
Date/Time
EST
Temp
°C
App
Temp
°C
Dew
Point
Rel
Hum
%
Delta-T
°C
Wind Press
QNH
hPa
Press
MSL
hPa
Rain
since 9 am
mm
Dir
 
Spd
km/h
Gust
km/h
Spd
kts
Gust
kts
28/11:00am 6.6 2.0 6.5 99 0.0 WNW 20 26 11 14 1034.6 1035.1 0.0
28/10:30am 6.2 1.1 6.1 99 0.0 WNW 22 26 12 14 1034.6 1035.1 0.0
28/10:00am 5.7 0.5 5.6 99 0.0 WNW 22 28 12 15 1034.7 1035.2 0.0
28/09:30am 5.3 -0.3 5.2 99 0.0 NW 24 28 13 15 1034.6 1035.1 0.0
28/09:00am 5.0 0.1 4.9 99 0.0 WNW 20 24 11 13 1034.4 1034.9 1.6
28/08:30am 4.6 -0.8 4.5 99 0.0 WNW 22 26 12 14 1034.2 1034.7 1.6
28/08:00am 4.2 -1.3 4.1 99 0.0 WNW 22 28 12 15 1033.9 1034.4 1.6
28/07:30am 4.0 -1.5 3.9 99 0.0 WNW 22 26 12 14 1033.5 1034.0 1.6
28/07:00am 4.0 -1.9 3.7 98 0.1 WNW 24 28 13 15 1033.0 1033.5 1.6
28/06:30am 4.1 -1.4 3.8 98 0.1 WNW 22 26 12 14 1032.8 1033.3 1.6
28/06:00am 4.3 -0.6 4.0 98 0.1 WNW 19 24 10 13 1032.4 1032.9 1.6
28/05:30am 4.7 -0.3 4.4 98 0.1 WNW 20 24 11 13 1031.8 1032.4 1.6
28/05:00am 4.8 -1.0 4.5 98 0.1 W 24 28 13 15 1031.6 1032.1 1.6
28/04:30am 4.8 -0.6 4.5 98 0.1 WNW 22 26 12 14 1031.5 1032.0 1.6
28/04:00am 5.2 -0.5 4.9 98 0.1 W 24 28 13 15 1031.5 1032.0 1.6
28/03:30am 5.4 -0.6 5.1 98 0.1 W 26 32 14 17 1031.4 1031.9 1.4
28/03:00am 5.4 -0.3 5.1 98 0.1 WNW 24 28 13 15 1031.4 1031.9 1.4
28/02:30am 5.3 0.0 5.0 98 0.1 WNW 22 26 12 14 1031.4 1031.9 1.4
28/02:00am 5.4 0.1 5.1 98 0.1 W 22 30 12 16 1031.2 1031.7 1.4
28/01:30am 5.4 0.1 5.1 98 0.1 WNW 22 26 12 14 1030.9 1031.4 1.4
28/01:00am 5.4 -0.3 5.0 97 0.2 W 24 30 13 16 1030.8 1031.3 1.2
28/12:30am 5.5 -0.5 5.1 97 0.2 W 26 30 14 16 1030.7 1031.2 1.2
28/12:00am 5.4 -0.3 5.0 97 0.2 WNW 24 30 13 16 1030.8 1031.3 1.0
 
Date/Time
EST
Temp
°C
App
Temp
°C
Dew
Point
Rel
Hum
%
Delta-T
°C
Wind Press
QNH
hPa
Press
MSL
hPa
Rain
since 9 am
mm
Dir
 
Spd
km/h
Gust
km/h
Spd
kts
Gust
kts
27/11:30pm 5.6 0.7 5.2 97 0.2 WNW 20 26 11 14 1030.8 1031.3 0.8
27/11:00pm 5.5 0.2 5.1 97 0.2 WNW 22 28 12 15 1030.8 1031.3 0.8
27/10:30pm 5.3 -0.8 4.7 96 0.3 WNW 26 30 14 16 1030.7 1031.2 0.6
27/10:00pm 5.3 -0.4 4.7 96 0.3 WNW 24 28 13 15 1030.6 1031.1 0.6
27/09:30pm 5.6 -0.5 5.0 96 0.3 WNW 26 30 14 16 1030.5 1031.0 0.6
27/09:00pm 5.8 -0.2 5.1 95 0.3 W 26 30 14 16 1030.4 1030.9 0.6
27/08:30pm 6.0 0.0 5.1 94 0.4 W 26 32 14 17 1030.3 1030.8 0.4
27/08:00pm 6.5 0.5 5.5 93 0.4 W 26 30 14 16 1030.3 1030.8 0.4
27/07:30pm 6.9 1.7 5.7 92 0.5 W 22 26 12 14 1030.2 1030.7 0.4
27/07:00pm 7.1 2.3 5.7 91 0.6 SW 20 26 11 14 1030.1 1030.6 0.4
27/06:30pm 7.2 1.6 5.3 88 0.9 WSW 24 30 13 16 1029.6 1030.1 0.2
27/06:00pm 7.5 1.4 5.0 84 1.1 W 26 35 14 19 1029.2 1029.7 0.2
27/05:30pm 7.3 1.7 5.4 88 0.9 W 24 32 13 17 1029.0 1029.5 0.2
27/05:00pm 8.0 2.8 5.3 83 1.2 WSW 22 33 12 18 1028.9 1029.4 0.2
27/04:30pm 7.9 1.9 5.4 84 1.1 WSW 26 37 14 20 1028.6 1029.1 0.2
27/04:00pm 8.2 0.1 5.3 82 1.3 WSW 37 52 20 28 1028.5 1028.9 0.2
27/03:30pm 10.0 3.0 6.9 81 1.5 W 33 44 18 24 1028.1 1028.5 0.2
27/03:00pm 9.4 2.6 6.7 83 1.3 W 32 39 17 21 1027.8 1028.3 0.2
27/02:30pm 9.6 2.6 6.7 82 1.4 W 33 39 18 21 1027.5 1028.0 0.2
27/02:00pm 10.3 3.0 7.4 82 1.4 W 35 41 19 22 1027.2 1027.7 0.2
27/01:30pm 9.3 2.5 6.7 84 1.2 W 32 44 17 24 1027.4 1027.9 0.2
27/01:00pm 8.3 1.0 7.1 92 0.6 WNW 35 43 19 23 1027.5 1028.0 0.2
27/12:30pm 8.9 2.3 7.8 93 0.5 WNW 32 39 17 21 1027.7 1028.2 0.2
27/12:00pm 8.2 1.3 7.3 94 0.4 W 33 41 18 22 1028.2 1028.6 0.2
27/11:30am 8.0 0.7 7.4 96 0.3 W 35 44 19 24 1028.5 1028.9 0.2
27/11:00am 7.6 0.9 7.2 97 0.2 W 32 39 17 21 1028.4 1028.8 0.2
27/10:30am 6.3 -0.3 5.9 97 0.2 WNW 30 33 16 18 1028.2 1028.6 0.2
27/10:00am 5.4 -1.0 5.1 98 0.1 WNW 28 33 15 18 1027.8 1028.3 0.0
27/09:30am 5.0 -0.4 4.7 98 0.1 WNW 22 30 12 16 1027.3 1027.8 0.0
27/09:00am 3.9 -2.8 3.6 98 0.1 W 28 33 15 18 1026.7 1027.2 6.2
27/08:30am 3.4 -3.0 3.0 97 0.2 W 26 33 14 18 1026.5 1027.0 6.2
27/08:00am 3.1 -4.2 2.7 97 0.2 W 30 35 16 19 1026.0 1026.5 6.2
27/07:30am 3.0 -4.3 2.6 97 0.2 W 30 35 16 19 1025.4 1025.9 6.2
27/07:00am 2.9 -4.8 2.5 97 0.2 W 32 35 17 19 1025.0 1025.4 6.2
27/06:30am 3.0 -4.3 2.6 97 0.2 W 30 35 16 19 1024.7 1025.1 6.2
27/06:00am 2.6 -4.0 2.0 96 0.2 W 26 33 14 18 1024.3 1024.7 6.2
27/05:30am 2.4 -4.2 1.8 96 0.2 W 26 35 14 19 1024.1 1024.5 6.2
27/05:00am 2.5 -4.5 1.9 96 0.2 W 28 33 15 18 1023.7 1024.2 6.2
27/04:30am 2.2 -5.3 1.5 95 0.3 W 30 35 16 19 1023.5 1024.0 6.2
27/04:00am 2.5 -4.5 1.8 95 0.3 W 28 33 15 18 1023.3 1023.8 6.0
27/03:30am 3.1 -3.9 2.2 94 0.4 W 28 33 15 18 1023.1 1023.6 6.0
27/03:00am 2.8 -5.0 1.9 94 0.4 W 32 43 17 23 1022.9 1023.4 6.0
27/02:30am 2.4 -4.3 1.7 95 0.3 W 26 30 14 16 1022.8 1023.3 6.0
27/02:00am 2.4 -3.9 1.5 94 0.3 WNW 24 30 13 16 1022.4 1022.9 6.0
27/01:30am 2.5 -3.8 1.6 94 0.4 WNW 24 30 13 16 1022.2 1022.7 6.0
27/01:00am 2.6 -4.4 1.9 95 0.3 WNW 28 32 15 17 1021.9 1022.3 5.8
27/12:30am 3.2 -3.4 2.3 94 0.4 W 26 46 14 25 1021.9 1022.3 5.8
27/12:22am 3.6 -3.2 2.9 95 0.3 W 28 46 15 25 1021.9 1022.3 5.8
27/12:21am 3.5 -3.7 2.8 95 0.3 W 30 46 16 25 1021.8 1022.2 5.8
27/12:00am 2.9 -3.7 2.0 94 0.4 W 26 28 14 15 1021.5 1021.9 5.8
 
Date/Time
EST
Temp
°C
App
Temp
°C
Dew
Point
Rel
Hum
%
Delta-T
°C
Wind Press
QNH
hPa
Press
MSL
hPa
Rain
since 9 am
mm
Dir
 
Spd
km/h
Gust
km/h
Spd
kts
Gust
kts
26/11:30pm 3.5 -3.0 2.6 94 0.4 W 26 33 14 18 1021.6 1022.0 5.8
26/11:00pm 3.4 -3.6 2.2 92 0.5 W 28 32 15 17 1021.2 1021.6 5.2
26/10:30pm 3.5 -3.9 2.0 90 0.6 W 30 39 16 21 1020.9 1021.3 5.2
26/10:00pm 3.8 -3.8 2.8 93 0.4 W 32 37 17 20 1020.1 1020.5 5.2
26/09:30pm 4.0 -4.9 2.8 92 0.5 W 39 48 21 26 1019.9 1020.3 5.2
26/09:00pm 3.7 -5.3 2.7 93 0.4 W 39 46 21 25 1019.6 1020.1 5.2
26/08:30pm 3.7 -5.7 2.5 92 0.5 W 41 54 22 29 1018.6 1019.0 5.2
26/08:00pm 3.9 -4.7 2.4 90 0.6 W 37 46 20 25 1018.3 1018.7 5.2
26/07:30pm 4.3 -4.2 3.0 91 0.5 W 37 44 20 24 1018.2 1018.6 5.0
26/07:00pm 4.7 -5.0 2.7 87 0.8 W 43 54 23 29 1017.4 1017.8 5.0
26/06:30pm 4.1 -5.7 2.1 87 0.8 W 43 56 23 30 1016.5 1016.9 5.0
26/06:00pm 4.4 -5.6 2.4 87 0.8 W 44 57 24 31 1016.0 1016.4 5.0
26/05:30pm 4.5 -4.9 2.5 87 0.8 W 41 50 22 27 1015.5 1015.9 5.0
26/05:00pm 5.0 -4.6 3.2 88 0.8 W 43 50 23 27 1015.0 1015.4 5.0
26/04:41pm 4.8 -4.9 3.1 89 0.7 W 43 61 23 33 1015.0 1015.4 5.0
26/04:30pm 5.5 -5.0 3.5 87 0.8 W 48 59 26 32 1014.8 1015.2 4.6
26/04:00pm 5.2 -4.9 3.5 89 0.7 W 46 54 25 29 1014.3 1014.7 4.6
26/03:45pm 5.1 -6.3 3.1 87 0.8 W 52 70 28 38 1014.0 1014.4 4.2
26/03:30pm 6.0 -4.4 4.2 88 0.8 W 48 59 26 32 1013.9 1014.3 4.2
26/03:00pm 5.6 -5.7 3.4 86 0.9 W 52 70 28 38 1013.3 1013.7 4.0
26/02:30pm 3.6 -11.7 2.4 92 0.5 W 72 102 39 55 1013.0 1013.4 3.8
26/02:28pm 3.7 -12.7 2.4 91 0.5 W 78 106 42 57 1013.0 1013.4 3.8
26/02:24pm 3.9 -12.2 2.1 88 0.7 W 76 106 41 57 1012.2 1012.5 3.8
26/02:21pm 5.3 -9.5 2.0 79 1.3 W 69 106 37 57 1011.4 1011.8 3.4
26/02:20pm 6.3 -7.3 2.0 74 1.8 WNW 63 106 34 57 1011.7 1012.1 3.4
26/02:19pm 6.7 -6.5 2.2 73 1.9 WNW 61 82 33 44 1012.3 1012.6 3.4
26/02:00pm 7.5 -3.5 3.2 74 1.8 W 50 65 27 35 1012.3 1012.6 3.4
26/01:33pm 5.1 -4.3 2.5 83 1.1 W 41 59 22 32 1013.0 1013.4 3.4
26/01:30pm 5.2 -4.8 2.2 81 1.2 W 44 59 24 32 1012.8 1013.2 3.4
26/01:00pm 5.3 -7.1 2.8 84 1.0 W 57 69 31 37 1012.3 1012.6 3.2
26/12:30pm 3.6 -8.6 2.4 92 0.5 W 56 76 30 41 1012.2 1012.5 3.2
26/12:24pm 3.4 -8.9 2.1 91 0.5 W 56 82 30 44 1012.1 1012.4 3.2
26/12:20pm 3.8 -7.7 2.3 90 0.6 W 52 82 28 44 1011.7 1012.1 3.2
26/12:14pm 4.1 -5.8 2.6 90 0.6 W 44 63 24 34 1012.3 1012.6 2.6
26/12:00pm 4.2 -5.5 2.9 91 0.5 W 43 56 23 30 1012.4 1012.7 2.2
26/11:30am 4.2 -7.7 2.2 87 0.8 WNW 54 76 29 41 1011.9 1012.2 2.0
26/11:28am 4.8 -6.3 2.7 86 0.9 WNW 50 76 27 41 1011.7 1012.1 1.8
26/11:00am 4.3 -6.4 2.8 90 0.6 WNW 48 57 26 31 1012.0 1012.3 1.2
26/10:30am 4.9 -7.6 2.1 82 1.1 WNW 57 72 31 39 1010.9 1011.3 1.2
26/10:00am 4.6 -5.2 3.4 92 0.5 WNW 44 56 24 30 1011.1 1011.5 1.2
26/09:30am 4.0 -6.7 2.7 91 0.5 WNW 48 59 26 32 1010.6 1011.0 0.6
26/09:00am 3.9 -7.6 2.3 89 0.6 WNW 52 72 28 39 1010.1 1010.5 5.2
26/08:59am 3.9 -7.6 2.3 89 0.6 WNW 52 72 28 39 1010.0 1010.4 5.2
26/08:30am 4.0 -7.6 1.9 86 0.8 WNW 52 65 28 35 1009.2 1009.5 4.8
26/08:00am 3.5 -8.5 1.5 87 0.8 WNW 54 65 29 35 1008.5 1008.8 4.8
26/07:30am 3.8 -8.6 1.4 84 0.9 WNW 56 74 30 40 1008.1 1008.4 4.8
26/07:26am 3.8 -8.2 1.5 85 0.9 WNW 54 74 29 40 1008.4 1008.7 4.8
26/07:00am 3.9 -6.5 1.8 86 0.8 NW 46 61 25 33 1008.1 1008.4 4.8
26/06:30am 4.2 -7.0 2.1 86 0.8 WNW 50 61 27 33 1007.6 1008.0 4.8
26/06:00am 4.5 -6.3 2.2 85 0.9 WNW 48 61 26 33 1007.7 1008.1 4.8
26/05:30am 4.8 -6.3 2.7 86 0.9 WNW 50 63 27 34 1007.2 1007.6 4.8
26/05:00am 4.7 -6.0 2.7 87 0.8 NW 48 59 26 32 1006.7 1007.1 4.8
26/04:30am 5.3 -4.9 3.3 87 0.8 WNW 46 54 25 29 1007.1 1007.5 4.8
26/04:00am 5.1 -4.6 3.1 87 0.8 WNW 43 50 23 27 1006.9 1007.3 4.8
26/03:30am 5.5 -5.0 3.7 88 0.8 WNW 48 56 26 30 1006.9 1007.3 4.8
26/03:00am 6.3 -5.9 3.6 83 1.2 WNW 57 69 31 37 1006.7 1007.1 4.8
26/02:50am 6.4 -4.0 4.4 87 0.9 WNW 48 69 26 37 1006.8 1007.2 4.8
26/02:30am 6.6 -4.1 4.6 87 0.9 WNW 50 61 27 33 1006.6 1007.0 4.8
26/02:09am 6.4 -5.1 4.2 86 1.0 WNW 54 72 29 39 1006.7 1007.1 4.8
26/02:00am 6.7 -5.3 4.0 83 1.2 WNW 56 72 30 39 1006.5 1006.9 4.8
26/01:54am 7.0 -4.5 4.5 84 1.1 WNW 54 72 29 39 1006.2 1006.6 4.8
26/01:30am 7.2 -3.1 4.9 85 1.0 WNW 48 61 26 33 1006.4 1006.8 4.8
26/01:00am 7.3 -3.2 5.6 89 0.8 WNW 50 65 27 35 1006.2 1006.6 4.8
26/12:30am 7.3 -2.6 6.4 94 0.4 WNW 48 63 26 34 1006.1 1006.4 4.8
26/12:00am 7.3 -2.2 6.7 96 0.3 WNW 46 61 25 33 1005.9 1006.2 4.8
 
Date/Time
EST
Temp
°C
App
Temp
°C
Dew
Point
Rel
Hum
%
Delta-T
°C
Wind Press
QNH
hPa
Press
MSL
hPa
Rain
since 9 am
mm
Dir
 
Spd
km/h
Gust
km/h
Spd
kts
Gust
kts
25/11:30pm 7.5 -1.6 6.9 96 0.3 WNW 44 57 24 31 1006.3 1006.7 4.4
25/11:10pm 7.7 -1.1 7.1 96 0.3 WNW 43 61 23 33 1006.3 1006.7 3.8
25/11:00pm 7.7 -2.5 7.1 96 0.3 WNW 50 61 27 33 1006.1 1006.4 3.4
25/10:35pm 7.3 -5.8 6.6 95 0.3 WNW 65 85 35 46 1005.6 1005.9 2.8
25/10:30pm 6.7 -7.0 5.8 94 0.4 WNW 67 85 36 46 1005.5 1005.8 2.4
25/10:24pm 7.9 -6.7 6.2 89 0.8 NW 72 87 39 47 1005.6 1005.9 0.4
25/10:23pm 8.6 -5.8 6.7 88 0.9 NW 72 93 39 50 1006.0 1006.3 0.2
25/10:22pm 8.9 -5.9 7.0 88 0.9 NW 74 93 40 50 1005.8 1006.1 0.2
25/10:00pm 9.6 -5.6 6.5 81 1.5 NNW 76 89 41 48 1003.5 1003.9 0.0
25/09:30pm 10.3 -6.0 5.3 71 2.3 NNW 80 104 43 56 1003.2 1003.6 0.0
25/09:19pm 10.8 -4.9 4.5 65 2.9 NNW 76 95 41 51 1002.7 1003.0 0.0
25/09:00pm 10.7 -4.6 4.4 65 2.9 NNW 74 91 40 49 1003.2 1003.6 0.0
25/08:39pm 10.4 -3.7 3.9 64 2.9 NNW 67 87 36 47 1004.1 1004.4 0.0
25/08:30pm 10.2 -3.1 4.1 66 2.7 NNW 63 76 34 41 1004.4 1004.7 0.0
25/08:00pm 10.1 -3.6 4.0 66 2.7 NNW 65 80 35 43 1004.9 1005.2 0.0
25/07:30pm 9.6 -2.0 4.0 68 2.5 N 54 67 29 36 1005.3 1005.6 0.0
25/07:00pm 9.2 -2.0 4.0 70 2.3 NNW 52 65 28 35 1006.0 1006.3 0.0
25/06:30pm 9.1 -1.7 4.3 72 2.1 N 50 61 27 33 1005.9 1006.2 0.0
25/06:00pm 8.9 -1.8 4.7 75 1.9 NNW 50 57 27 31 1006.3 1006.7 0.0
25/05:30pm 9.2 -1.1 4.8 74 2.0 NNW 48 59 26 32 1007.0 1007.4 0.0
25/05:00pm 10.0 -1.4 5.0 71 2.3 NNW 54 69 29 37 1007.9 1008.2 0.0
25/04:30pm 10.4 -0.2 5.0 69 2.5 NNW 50 67 27 36 1007.7 1008.1 0.0
25/04:01pm 10.6 -0.4 5.2 69 2.5 NNW 52 72 28 39 1008.4 1008.7 0.0
25/04:00pm 10.6 -0.8 4.9 68 2.6 NNW 54 72 29 39 1008.3 1008.6 0.0
25/03:30pm 10.6 -0.4 5.2 69 2.5 NNW 52 63 28 34 1008.3 1008.6 0.0
25/03:00pm 10.4 -0.9 5.4 71 2.3 NNW 54 63 29 34 1008.4 1008.7 0.0
25/02:30pm 10.1 -0.5 5.1 71 2.3 NNW 50 61 27 33 1008.9 1009.2 0.0
25/02:00pm 10.3 -0.7 5.1 70 2.4 NW 52 65 28 35 1009.0 1009.3 0.0
25/01:30pm 10.5 0.4 5.5 71 2.3 NNW 48 57 26 31 1009.3 1009.6 0.0
25/01:00pm 10.2 0.8 5.4 72 2.2 NNW 44 54 24 29 1009.6 1010.0 0.0
25/12:30pm 10.0 0.3 5.6 74 2.0 NNW 46 56 25 30 1010.6 1011.0 0.0
25/12:00pm 9.3 -1.3 5.1 75 1.9 NW 50 59 27 32 1011.1 1011.5 0.0
25/11:30am 9.3 0.1 5.3 76 1.8 NW 43 56 23 30 1011.6 1012.0 0.0

Other Formats:

Comma delimited format used in spreadsheet applications
http://www.bom.gov.au/fwo/IDV60801/IDV60801.95845.axf

JavaScript Object Notation format (JSON) in row-major order
http://www.bom.gov.au/fwo/IDV60801/IDV60801.95845.json